sensor_id;sensor_type;location;lat;lon;timestamp;temperature;humidity
18779;DHT22;9518;51.720;14.384;2024-02-26T00:01:13;-0.30;99.90
18779;DHT22;9518;51.720;14.384;2024-02-26T00:03:40;-0.40;99.90
18779;DHT22;9518;51.720;14.384;2024-02-26T00:06:10;-0.40;99.90
18779;DHT22;9518;51.720;14.384;2024-02-26T00:08:37;-0.40;99.90
18779;DHT22;9518;51.720;14.384;2024-02-26T00:11:04;-0.30;99.90
18779;DHT22;9518;51.720;14.384;2024-02-26T00:13:31;-0.30;99.90
18779;DHT22;9518;51.720;14.384;2024-02-26T00:15:58;-0.30;99.90
18779;DHT22;9518;51.720;14.384;2024-02-26T00:18:25;-0.30;99.90
18779;DHT22;9518;51.720;14.384;2024-02-26T00:20:52;-0.30;99.90
18779;DHT22;9518;51.720;14.384;2024-02-26T00:23:21;-0.30;99.90
18779;DHT22;9518;51.720;14.384;2024-02-26T00:25:49;-0.40;99.90
18779;DHT22;9518;51.720;14.384;2024-02-26T00:28:16;-0.40;99.90
18779;DHT22;9518;51.720;14.384;2024-02-26T00:30:45;-0.40;99.90
18779;DHT22;9518;51.720;14.384;2024-02-26T00:33:12;-0.50;99.90
18779;DHT22;9518;51.720;14.384;2024-02-26T00:35:39;-0.50;99.90
18779;DHT22;9518;51.720;14.384;2024-02-26T00:38:06;-0.60;99.90
18779;DHT22;9518;51.720;14.384;2024-02-26T00:40:34;-0.60;99.90
18779;DHT22;9518;51.720;14.384;2024-02-26T00:43:01;-0.70;99.90
18779;DHT22;9518;51.720;14.384;2024-02-26T00:45:29;-0.80;99.90
18779;DHT22;9518;51.720;14.384;2024-02-26T00:47:57;-0.80;99.90
18779;DHT22;9518;51.720;14.384;2024-02-26T00:50:26;-0.80;99.90
18779;DHT22;9518;51.720;14.384;2024-02-26T00:52:54;-0.90;99.90
18779;DHT22;9518;51.720;14.384;2024-02-26T00:55:22;-0.90;99.90
18779;DHT22;9518;51.720;14.384;2024-02-26T00:57:51;-0.90;99.90
18779;DHT22;9518;51.720;14.384;2024-02-26T01:00:18;-0.90;99.90
18779;DHT22;9518;51.720;14.384;2024-02-26T01:02:46;-0.90;99.90
18779;DHT22;9518;51.720;14.384;2024-02-26T01:05:13;-0.90;99.90
18779;DHT22;9518;51.720;14.384;2024-02-26T01:07:42;-0.90;99.90
18779;DHT22;9518;51.720;14.384;2024-02-26T01:10:10;-0.90;99.90
18779;DHT22;9518;51.720;14.384;2024-02-26T01:12:37;-1.00;99.90
18779;DHT22;9518;51.720;14.384;2024-02-26T01:15:06;-1.10;99.90
18779;DHT22;9518;51.720;14.384;2024-02-26T01:17:34;-1.10;99.90
18779;DHT22;9518;51.720;14.384;2024-02-26T01:20:00;-1.10;99.90
18779;DHT22;9518;51.720;14.384;2024-02-26T01:22:27;-1.20;99.90
18779;DHT22;9518;51.720;14.384;2024-02-26T01:24:54;-1.20;99.90
18779;DHT22;9518;51.720;14.384;2024-02-26T01:27:22;-1.20;99.90
18779;DHT22;9518;51.720;14.384;2024-02-26T01:29:52;-1.30;99.90
18779;DHT22;9518;51.720;14.384;2024-02-26T01:32:21;-1.20;99.90
18779;DHT22;9518;51.720;14.384;2024-02-26T01:34:48;-1.20;99.90
18779;DHT22;9518;51.720;14.384;2024-02-26T01:37:15;-1.10;99.90
18779;DHT22;9518;51.720;14.384;2024-02-26T01:39:42;-1.10;99.90
18779;DHT22;9518;51.720;14.384;2024-02-26T01:42:09;-1.10;99.90
18779;DHT22;9518;51.720;14.384;2024-02-26T01:44:36;-1.10;99.90
18779;DHT22;9518;51.720;14.384;2024-02-26T01:47:05;-1.10;99.90
18779;DHT22;9518;51.720;14.384;2024-02-26T01:49:34;-1.10;99.90
18779;DHT22;9518;51.720;14.384;2024-02-26T01:52:03;-1.10;99.90
18779;DHT22;9518;51.720;14.384;2024-02-26T01:54:31;-1.20;99.90
18779;DHT22;9518;51.720;14.384;2024-02-26T01:56:59;-1.20;99.90
18779;DHT22;9518;51.720;14.384;2024-02-26T01:59:27;-1.20;99.90
18779;DHT22;9518;51.720;14.384;2024-02-26T02:01:57;-1.20;99.90
18779;DHT22;9518;51.720;14.384;2024-02-26T02:04:25;-1.20;99.90
18779;DHT22;9518;51.720;14.384;2024-02-26T02:06:54;-1.30;99.90
18779;DHT22;9518;51.720;14.384;2024-02-26T02:09:21;-1.30;99.90
18779;DHT22;9518;51.720;14.384;2024-02-26T02:11:50;-1.30;99.90
18779;DHT22;9518;51.720;14.384;2024-02-26T02:14:17;-1.40;99.90
18779;DHT22;9518;51.720;14.384;2024-02-26T02:16:44;-1.40;99.90
18779;DHT22;9518;51.720;14.384;2024-02-26T02:19:11;-1.40;99.90
18779;DHT22;9518;51.720;14.384;2024-02-26T02:21:40;-1.50;99.90
18779;DHT22;9518;51.720;14.384;2024-02-26T02:24:07;-1.50;99.90
18779;DHT22;9518;51.720;14.384;2024-02-26T02:26:34;-1.60;99.90
18779;DHT22;9518;51.720;14.384;2024-02-26T02:29:01;-1.60;99.90
18779;DHT22;9518;51.720;14.384;2024-02-26T02:31:28;-1.60;99.90
18779;DHT22;9518;51.720;14.384;2024-02-26T02:33:57;-1.60;99.90
18779;DHT22;9518;51.720;14.384;2024-02-26T02:36:24;-1.60;99.90
18779;DHT22;9518;51.720;14.384;2024-02-26T02:38:52;-1.60;99.90
18779;DHT22;9518;51.720;14.384;2024-02-26T02:41:20;-1.60;99.90
18779;DHT22;9518;51.720;14.384;2024-02-26T02:43:47;-1.60;99.90
18779;DHT22;9518;51.720;14.384;2024-02-26T02:46:14;-1.60;99.90
18779;DHT22;9518;51.720;14.384;2024-02-26T02:48:42;-1.70;99.90
18779;DHT22;9518;51.720;14.384;2024-02-26T02:51:12;-1.80;99.90
18779;DHT22;9518;51.720;14.384;2024-02-26T02:53:39;-1.80;99.90
18779;DHT22;9518;51.720;14.384;2024-02-26T02:56:08;-1.80;99.90
18779;DHT22;9518;51.720;14.384;2024-02-26T02:58:35;-1.80;99.90
18779;DHT22;9518;51.720;14.384;2024-02-26T03:01:02;-1.80;99.90
18779;DHT22;9518;51.720;14.384;2024-02-26T03:03:29;-1.80;99.90
18779;DHT22;9518;51.720;14.384;2024-02-26T03:05:56;-1.80;99.90
18779;DHT22;9518;51.720;14.384;2024-02-26T03:08:24;-1.90;99.90
18779;DHT22;9518;51.720;14.384;2024-02-26T03:10:52;-1.90;99.90
18779;DHT22;9518;51.720;14.384;2024-02-26T03:13:20;-1.90;99.90
18779;DHT22;9518;51.720;14.384;2024-02-26T03:15:48;-2.00;99.90
18779;DHT22;9518;51.720;14.384;2024-02-26T03:18:15;-2.00;99.90
18779;DHT22;9518;51.720;14.384;2024-02-26T03:20:42;-2.00;99.90
18779;DHT22;9518;51.720;14.384;2024-02-26T03:23:09;-2.00;99.90
18779;DHT22;9518;51.720;14.384;2024-02-26T03:25:38;-2.00;99.90
18779;DHT22;9518;51.720;14.384;2024-02-26T03:28:05;-2.00;99.90
18779;DHT22;9518;51.720;14.384;2024-02-26T03:30:34;-2.00;99.90
18779;DHT22;9518;51.720;14.384;2024-02-26T03:33:01;-2.10;99.90
18779;DHT22;9518;51.720;14.384;2024-02-26T03:35:28;-2.10;99.90
18779;DHT22;9518;51.720;14.384;2024-02-26T03:37:55;-2.10;99.90
18779;DHT22;9518;51.720;14.384;2024-02-26T03:40:22;-2.10;99.90
18779;DHT22;9518;51.720;14.384;2024-02-26T03:42:50;-2.10;99.90
18779;DHT22;9518;51.720;14.384;2024-02-26T03:45:18;-2.00;99.90
18779;DHT22;9518;51.720;14.384;2024-02-26T03:47:46;-1.90;99.90
18779;DHT22;9518;51.720;14.384;2024-02-26T03:50:14;-2.00;99.90
18779;DHT22;9518;51.720;14.384;2024-02-26T03:52:42;-2.00;99.90
18779;DHT22;9518;51.720;14.384;2024-02-26T03:55:09;-2.00;99.90
18779;DHT22;9518;51.720;14.384;2024-02-26T03:57:36;-1.90;99.90
18779;DHT22;9518;51.720;14.384;2024-02-26T04:00:04;-2.00;99.90
18779;DHT22;9518;51.720;14.384;2024-02-26T04:02:32;-2.10;99.90
18779;DHT22;9518;51.720;14.384;2024-02-26T04:05:00;-2.10;99.90
18779;DHT22;9518;51.720;14.384;2024-02-26T04:07:28;-2.00;99.90
18779;DHT22;9518;51.720;14.384;2024-02-26T04:09:55;-2.00;99.90
18779;DHT22;9518;51.720;14.384;2024-02-26T04:12:22;-2.00;99.90
18779;DHT22;9518;51.720;14.384;2024-02-26T04:14:49;-2.00;99.90
18779;DHT22;9518;51.720;14.384;2024-02-26T04:17:16;-1.90;99.90
18779;DHT22;9518;51.720;14.384;2024-02-26T04:19:43;-1.80;99.90
18779;DHT22;9518;51.720;14.384;2024-02-26T04:22:12;-1.80;99.90
18779;DHT22;9518;51.720;14.384;2024-02-26T04:24:39;-1.90;99.90
18779;DHT22;9518;51.720;14.384;2024-02-26T04:27:06;-1.90;99.90
18779;DHT22;9518;51.720;14.384;2024-02-26T04:29:33;-1.80;99.90
18779;DHT22;9518;51.720;14.384;2024-02-26T04:32:00;-1.90;99.90
18779;DHT22;9518;51.720;14.384;2024-02-26T04:34:27;-1.80;99.90
18779;DHT22;9518;51.720;14.384;2024-02-26T04:36:54;-1.80;99.90
18779;DHT22;9518;51.720;14.384;2024-02-26T04:39:22;-1.80;99.90
18779;DHT22;9518;51.720;14.384;2024-02-26T04:41:49;-1.80;99.90
18779;DHT22;9518;51.720;14.384;2024-02-26T04:44:16;-1.70;99.90
18779;DHT22;9518;51.720;14.384;2024-02-26T04:46:43;-1.70;99.90
18779;DHT22;9518;51.720;14.384;2024-02-26T04:49:22;-1.70;99.90
18779;DHT22;9518;51.720;14.384;2024-02-26T04:51:49;-1.80;99.90
18779;DHT22;9518;51.720;14.384;2024-02-26T04:54:16;-1.80;99.90
18779;DHT22;9518;51.720;14.384;2024-02-26T04:56:45;-1.80;99.90
18779;DHT22;9518;51.720;14.384;2024-02-26T04:59:14;-1.90;99.90
18779;DHT22;9518;51.720;14.384;2024-02-26T05:01:40;-1.90;99.90
18779;DHT22;9518;51.720;14.384;2024-02-26T05:04:09;-2.00;99.90
18779;DHT22;9518;51.720;14.384;2024-02-26T05:06:37;-2.00;99.90
18779;DHT22;9518;51.720;14.384;2024-02-26T05:09:04;-2.10;99.90
18779;DHT22;9518;51.720;14.384;2024-02-26T05:11:31;-2.10;99.90
18779;DHT22;9518;51.720;14.384;2024-02-26T05:14:00;-2.20;99.90
18779;DHT22;9518;51.720;14.384;2024-02-26T05:16:27;-2.20;99.90
18779;DHT22;9518;51.720;14.384;2024-02-26T05:18:56;-2.30;99.90
18779;DHT22;9518;51.720;14.384;2024-02-26T05:21:23;-2.30;99.90
18779;DHT22;9518;51.720;14.384;2024-02-26T05:23:51;-2.20;99.90
18779;DHT22;9518;51.720;14.384;2024-02-26T05:26:22;-2.20;99.90
18779;DHT22;9518;51.720;14.384;2024-02-26T05:28:49;-2.20;99.90
18779;DHT22;9518;51.720;14.384;2024-02-26T05:31:18;-2.20;99.90
18779;DHT22;9518;51.720;14.384;2024-02-26T05:33:45;-2.20;99.90
18779;DHT22;9518;51.720;14.384;2024-02-26T05:36:18;-2.20;99.90
18779;DHT22;9518;51.720;14.384;2024-02-26T05:38:45;-2.20;99.90
18779;DHT22;9518;51.720;14.384;2024-02-26T05:41:15;-2.20;99.90
18779;DHT22;9518;51.720;14.384;2024-02-26T05:43:42;-2.20;99.90
18779;DHT22;9518;51.720;14.384;2024-02-26T05:46:09;-2.20;99.90
18779;DHT22;9518;51.720;14.384;2024-02-26T05:48:37;-2.30;99.90
18779;DHT22;9518;51.720;14.384;2024-02-26T05:51:04;-2.20;99.90
18779;DHT22;9518;51.720;14.384;2024-02-26T05:53:31;-2.30;99.90
18779;DHT22;9518;51.720;14.384;2024-02-26T05:55:59;-2.20;99.90
18779;DHT22;9518;51.720;14.384;2024-02-26T05:58:26;-2.20;99.90
18779;DHT22;9518;51.720;14.384;2024-02-26T06:00:53;-2.30;99.90
18779;DHT22;9518;51.720;14.384;2024-02-26T06:03:20;-2.30;99.90
18779;DHT22;9518;51.720;14.384;2024-02-26T06:05:49;-2.20;99.90
18779;DHT22;9518;51.720;14.384;2024-02-26T06:08:16;-2.30;99.90
18779;DHT22;9518;51.720;14.384;2024-02-26T06:10:43;-2.30;99.90
18779;DHT22;9518;51.720;14.384;2024-02-26T06:13:11;-2.30;99.90
18779;DHT22;9518;51.720;14.384;2024-02-26T06:15:41;-2.20;99.90
18779;DHT22;9518;51.720;14.384;2024-02-26T06:18:08;-2.10;99.90
18779;DHT22;9518;51.720;14.384;2024-02-26T06:20:35;-2.10;99.90
18779;DHT22;9518;51.720;14.384;2024-02-26T06:23:04;-2.00;99.90
18779;DHT22;9518;51.720;14.384;2024-02-26T06:25:31;-2.00;99.90
18779;DHT22;9518;51.720;14.384;2024-02-26T06:27:58;-1.90;99.90
18779;DHT22;9518;51.720;14.384;2024-02-26T06:30:25;-1.80;99.90
18779;DHT22;9518;51.720;14.384;2024-02-26T06:32:53;-1.70;99.90
18779;DHT22;9518;51.720;14.384;2024-02-26T06:35:20;-1.70;99.90
18779;DHT22;9518;51.720;14.384;2024-02-26T06:37:46;-1.60;99.90
18779;DHT22;9518;51.720;14.384;2024-02-26T06:40:17;-1.60;99.90
18779;DHT22;9518;51.720;14.384;2024-02-26T06:42:44;-1.60;99.90
18779;DHT22;9518;51.720;14.384;2024-02-26T06:45:11;-1.60;99.90
18779;DHT22;9518;51.720;14.384;2024-02-26T06:47:38;-1.50;99.90
18779;DHT22;9518;51.720;14.384;2024-02-26T06:50:06;-1.50;99.90
18779;DHT22;9518;51.720;14.384;2024-02-26T06:52:33;-1.30;99.90
18779;DHT22;9518;51.720;14.384;2024-02-26T06:55:01;-1.10;99.90
18779;DHT22;9518;51.720;14.384;2024-02-26T06:57:30;-0.80;99.90
18779;DHT22;9518;51.720;14.384;2024-02-26T06:59:57;-0.60;99.90
18779;DHT22;9518;51.720;14.384;2024-02-26T07:02:24;-0.50;99.90
18779;DHT22;9518;51.720;14.384;2024-02-26T07:04:51;-0.40;99.90
18779;DHT22;9518;51.720;14.384;2024-02-26T07:07:18;-0.10;99.90
18779;DHT22;9518;51.720;14.384;2024-02-26T07:09:45;0.10;99.90
18779;DHT22;9518;51.720;14.384;2024-02-26T07:12:13;0.20;99.90
18779;DHT22;9518;51.720;14.384;2024-02-26T07:14:44;0.40;99.90
18779;DHT22;9518;51.720;14.384;2024-02-26T07:17:11;0.50;99.90
18779;DHT22;9518;51.720;14.384;2024-02-26T07:19:39;0.70;99.90
18779;DHT22;9518;51.720;14.384;2024-02-26T07:22:06;0.80;99.90
18779;DHT22;9518;51.720;14.384;2024-02-26T07:24:33;0.90;99.90
18779;DHT22;9518;51.720;14.384;2024-02-26T07:27:00;1.00;99.90
18779;DHT22;9518;51.720;14.384;2024-02-26T07:29:27;1.10;99.90
18779;DHT22;9518;51.720;14.384;2024-02-26T07:31:55;1.20;99.90
18779;DHT22;9518;51.720;14.384;2024-02-26T07:34:23;1.30;99.90
18779;DHT22;9518;51.720;14.384;2024-02-26T07:36:54;1.50;99.90
18779;DHT22;9518;51.720;14.384;2024-02-26T07:39:21;1.60;99.90
18779;DHT22;9518;51.720;14.384;2024-02-26T07:41:48;1.80;99.90
18779;DHT22;9518;51.720;14.384;2024-02-26T07:44:17;1.90;99.90
18779;DHT22;9518;51.720;14.384;2024-02-26T07:46:45;2.10;99.90
18779;DHT22;9518;51.720;14.384;2024-02-26T07:49:13;2.30;99.90
18779;DHT22;9518;51.720;14.384;2024-02-26T07:51:40;2.40;99.90
18779;DHT22;9518;51.720;14.384;2024-02-26T07:54:09;2.50;99.90
18779;DHT22;9518;51.720;14.384;2024-02-26T07:56:36;2.60;99.90
18779;DHT22;9518;51.720;14.384;2024-02-26T07:59:03;2.80;99.90
18779;DHT22;9518;51.720;14.384;2024-02-26T08:01:30;3.00;99.90
18779;DHT22;9518;51.720;14.384;2024-02-26T08:03:57;3.20;99.90
18779;DHT22;9518;51.720;14.384;2024-02-26T08:06:25;3.40;99.90
18779;DHT22;9518;51.720;14.384;2024-02-26T08:08:52;3.60;99.90
18779;DHT22;9518;51.720;14.384;2024-02-26T08:11:19;3.80;99.90
18779;DHT22;9518;51.720;14.384;2024-02-26T08:13:47;4.00;99.90
18779;DHT22;9518;51.720;14.384;2024-02-26T08:16:14;4.20;99.90
18779;DHT22;9518;51.720;14.384;2024-02-26T08:18:41;4.50;99.90
18779;DHT22;9518;51.720;14.384;2024-02-26T08:21:08;4.60;99.90
18779;DHT22;9518;51.720;14.384;2024-02-26T08:23:37;4.70;99.90
18779;DHT22;9518;51.720;14.384;2024-02-26T08:26:04;4.80;99.90
18779;DHT22;9518;51.720;14.384;2024-02-26T08:28:32;4.80;99.90
18779;DHT22;9518;51.720;14.384;2024-02-26T08:30:59;4.90;99.90
18779;DHT22;9518;51.720;14.384;2024-02-26T08:33:26;5.00;99.90
18779;DHT22;9518;51.720;14.384;2024-02-26T08:35:54;5.00;99.90
18779;DHT22;9518;51.720;14.384;2024-02-26T08:38:21;5.10;99.90
18779;DHT22;9518;51.720;14.384;2024-02-26T08:40:51;5.30;99.90
18779;DHT22;9518;51.720;14.384;2024-02-26T08:43:18;5.40;99.90
18779;DHT22;9518;51.720;14.384;2024-02-26T08:45:45;5.60;99.90
18779;DHT22;9518;51.720;14.384;2024-02-26T08:48:12;5.70;99.90
18779;DHT22;9518;51.720;14.384;2024-02-26T08:50:39;5.80;99.90
18779;DHT22;9518;51.720;14.384;2024-02-26T08:53:06;5.90;99.90
18779;DHT22;9518;51.720;14.384;2024-02-26T08:55:33;6.10;99.90
18779;DHT22;9518;51.720;14.384;2024-02-26T08:58:03;6.20;99.90
18779;DHT22;9518;51.720;14.384;2024-02-26T09:00:30;6.40;99.90
18779;DHT22;9518;51.720;14.384;2024-02-26T09:02:57;6.40;99.90
18779;DHT22;9518;51.720;14.384;2024-02-26T09:05:25;6.50;99.90
18779;DHT22;9518;51.720;14.384;2024-02-26T09:07:52;6.80;99.90
18779;DHT22;9518;51.720;14.384;2024-02-26T09:10:19;7.00;99.90
18779;DHT22;9518;51.720;14.384;2024-02-26T09:12:48;7.10;99.90
18779;DHT22;9518;51.720;14.384;2024-02-26T09:15:16;7.20;99.90
18779;DHT22;9518;51.720;14.384;2024-02-26T09:17:43;7.30;99.90
18779;DHT22;9518;51.720;14.384;2024-02-26T09:20:11;7.50;99.90
18779;DHT22;9518;51.720;14.384;2024-02-26T09:22:41;7.70;99.90
18779;DHT22;9518;51.720;14.384;2024-02-26T09:25:08;7.90;99.90
18779;DHT22;9518;51.720;14.384;2024-02-26T09:27:35;7.90;99.90
18779;DHT22;9518;51.720;14.384;2024-02-26T09:30:04;8.10;99.90
18779;DHT22;9518;51.720;14.384;2024-02-26T09:32:34;8.10;99.90
18779;DHT22;9518;51.720;14.384;2024-02-26T09:35:02;8.20;99.90
18779;DHT22;9518;51.720;14.384;2024-02-26T09:37:29;8.30;99.90
18779;DHT22;9518;51.720;14.384;2024-02-26T09:39:56;8.50;99.90
18779;DHT22;9518;51.720;14.384;2024-02-26T09:42:26;8.60;99.90
18779;DHT22;9518;51.720;14.384;2024-02-26T09:44:54;8.70;99.90
18779;DHT22;9518;51.720;14.384;2024-02-26T09:47:23;8.90;99.90
18779;DHT22;9518;51.720;14.384;2024-02-26T09:49:56;9.00;99.90
18779;DHT22;9518;51.720;14.384;2024-02-26T09:52:24;9.20;99.90
18779;DHT22;9518;51.720;14.384;2024-02-26T09:54:52;9.30;99.90
18779;DHT22;9518;51.720;14.384;2024-02-26T09:57:19;9.30;99.90
18779;DHT22;9518;51.720;14.384;2024-02-26T09:59:51;9.30;99.90
18779;DHT22;9518;51.720;14.384;2024-02-26T10:02:20;9.40;99.90
18779;DHT22;9518;51.720;14.384;2024-02-26T10:04:48;9.60;99.90
18779;DHT22;9518;51.720;14.384;2024-02-26T10:07:17;9.60;99.90
18779;DHT22;9518;51.720;14.384;2024-02-26T10:09:45;9.70;99.90
18779;DHT22;9518;51.720;14.384;2024-02-26T10:12:13;9.80;99.90
18779;DHT22;9518;51.720;14.384;2024-02-26T10:14:42;9.90;99.90
18779;DHT22;9518;51.720;14.384;2024-02-26T10:17:10;10.00;99.90
18779;DHT22;9518;51.720;14.384;2024-02-26T10:19:39;10.10;99.90
18779;DHT22;9518;51.720;14.384;2024-02-26T10:22:06;10.30;99.90
18779;DHT22;9518;51.720;14.384;2024-02-26T10:24:35;10.40;99.90
18779;DHT22;9518;51.720;14.384;2024-02-26T10:27:02;10.50;99.90
18779;DHT22;9518;51.720;14.384;2024-02-26T10:29:31;10.60;99.90
18779;DHT22;9518;51.720;14.384;2024-02-26T10:31:58;10.80;99.90
18779;DHT22;9518;51.720;14.384;2024-02-26T10:34:26;11.00;99.90
18779;DHT22;9518;51.720;14.384;2024-02-26T10:36:54;11.20;99.90
18779;DHT22;9518;51.720;14.384;2024-02-26T10:39:21;11.20;99.70
18779;DHT22;9518;51.720;14.384;2024-02-26T10:41:50;11.30;98.40
18779;DHT22;9518;51.720;14.384;2024-02-26T10:44:18;11.50;98.10
18779;DHT22;9518;51.720;14.384;2024-02-26T10:46:47;11.70;97.00
18779;DHT22;9518;51.720;14.384;2024-02-26T10:49:15;11.60;97.30
18779;DHT22;9518;51.720;14.384;2024-02-26T10:51:48;11.60;96.60
18779;DHT22;9518;51.720;14.384;2024-02-26T10:54:18;11.70;97.00
18779;DHT22;9518;51.720;14.384;2024-02-26T10:56:47;11.70;96.80
18779;DHT22;9518;51.720;14.384;2024-02-26T10:59:17;11.80;96.30
18779;DHT22;9518;51.720;14.384;2024-02-26T11:01:47;11.80;95.20
18779;DHT22;9518;51.720;14.384;2024-02-26T11:04:15;11.80;95.60
18779;DHT22;9518;51.720;14.384;2024-02-26T11:06:43;12.00;96.20
18779;DHT22;9518;51.720;14.384;2024-02-26T11:09:14;12.10;95.30
18779;DHT22;9518;51.720;14.384;2024-02-26T11:11:42;12.40;93.90
18779;DHT22;9518;51.720;14.384;2024-02-26T11:14:10;12.30;94.00
18779;DHT22;9518;51.720;14.384;2024-02-26T11:16:41;12.30;93.50
18779;DHT22;9518;51.720;14.384;2024-02-26T11:19:09;12.10;94.40
18779;DHT22;9518;51.720;14.384;2024-02-26T11:21:36;12.20;94.40
18779;DHT22;9518;51.720;14.384;2024-02-26T11:24:08;12.60;93.90
18779;DHT22;9518;51.720;14.384;2024-02-26T11:26:39;12.90;93.40
18779;DHT22;9518;51.720;14.384;2024-02-26T11:29:09;13.00;91.30
18779;DHT22;9518;51.720;14.384;2024-02-26T11:31:39;13.00;91.10
18779;DHT22;9518;51.720;14.384;2024-02-26T11:34:08;13.30;91.30
18779;DHT22;9518;51.720;14.384;2024-02-26T11:36:36;13.80;90.30
18779;DHT22;9518;51.720;14.384;2024-02-26T11:39:05;13.60;90.00
18779;DHT22;9518;51.720;14.384;2024-02-26T11:41:33;13.70;88.20
18779;DHT22;9518;51.720;14.384;2024-02-26T11:44:01;13.80;87.10
18779;DHT22;9518;51.720;14.384;2024-02-26T11:46:31;13.40;87.60
18779;DHT22;9518;51.720;14.384;2024-02-26T11:49:01;13.10;89.80
18779;DHT22;9518;51.720;14.384;2024-02-26T11:51:33;13.30;88.20
18779;DHT22;9518;51.720;14.384;2024-02-26T11:54:01;13.50;88.70
18779;DHT22;9518;51.720;14.384;2024-02-26T11:56:28;13.70;87.60
18779;DHT22;9518;51.720;14.384;2024-02-26T11:59:03;14.10;88.20
18779;DHT22;9518;51.720;14.384;2024-02-26T12:01:46;14.20;86.20
18779;DHT22;9518;51.720;14.384;2024-02-26T12:04:19;14.00;84.80
18779;DHT22;9518;51.720;14.384;2024-02-26T12:06:50;13.40;87.10
18779;DHT22;9518;51.720;14.384;2024-02-26T12:09:33;13.00;87.90
18779;DHT22;9518;51.720;14.384;2024-02-26T12:12:02;13.00;90.20
18779;DHT22;9518;51.720;14.384;2024-02-26T12:14:32;13.20;88.80
18779;DHT22;9518;51.720;14.384;2024-02-26T12:16:59;13.10;89.60
18779;DHT22;9518;51.720;14.384;2024-02-26T12:19:28;12.90;90.60
18779;DHT22;9518;51.720;14.384;2024-02-26T12:21:55;13.00;90.00
18779;DHT22;9518;51.720;14.384;2024-02-26T12:24:22;13.00;89.80
18779;DHT22;9518;51.720;14.384;2024-02-26T12:26:49;12.90;90.70
18779;DHT22;9518;51.720;14.384;2024-02-26T12:29:16;13.20;90.50
18779;DHT22;9518;51.720;14.384;2024-02-26T12:31:44;13.20;89.70
18779;DHT22;9518;51.720;14.384;2024-02-26T12:34:11;13.40;88.60
18779;DHT22;9518;51.720;14.384;2024-02-26T12:36:40;13.60;90.00
18779;DHT22;9518;51.720;14.384;2024-02-26T12:39:08;13.70;89.20
18779;DHT22;9518;51.720;14.384;2024-02-26T12:41:37;13.60;88.00
18779;DHT22;9518;51.720;14.384;2024-02-26T12:44:04;13.50;87.90
18779;DHT22;9518;51.720;14.384;2024-02-26T12:46:32;13.60;87.90
18779;DHT22;9518;51.720;14.384;2024-02-26T12:48:59;13.60;90.70
18779;DHT22;9518;51.720;14.384;2024-02-26T12:51:26;13.50;89.20
18779;DHT22;9518;51.720;14.384;2024-02-26T12:53:56;13.40;88.80
18779;DHT22;9518;51.720;14.384;2024-02-26T12:56:27;13.60;90.00
18779;DHT22;9518;51.720;14.384;2024-02-26T12:58:55;13.60;86.90
18779;DHT22;9518;51.720;14.384;2024-02-26T13:01:23;13.70;87.00
18779;DHT22;9518;51.720;14.384;2024-02-26T13:03:52;13.90;86.40
18779;DHT22;9518;51.720;14.384;2024-02-26T13:06:20;14.00;86.50
18779;DHT22;9518;51.720;14.384;2024-02-26T13:08:49;14.40;85.60
18779;DHT22;9518;51.720;14.384;2024-02-26T13:11:18;14.50;86.50
18779;DHT22;9518;51.720;14.384;2024-02-26T13:13:48;14.80;85.10
18779;DHT22;9518;51.720;14.384;2024-02-26T13:16:16;14.90;83.40
18779;DHT22;9518;51.720;14.384;2024-02-26T13:18:45;15.20;83.50
18779;DHT22;9518;51.720;14.384;2024-02-26T13:21:13;15.10;81.50
18779;DHT22;9518;51.720;14.384;2024-02-26T13:23:42;14.90;80.60
18779;DHT22;9518;51.720;14.384;2024-02-26T13:26:12;14.40;81.40
18779;DHT22;9518;51.720;14.384;2024-02-26T13:28:42;14.40;82.40
18779;DHT22;9518;51.720;14.384;2024-02-26T13:31:10;14.40;82.70
18779;DHT22;9518;51.720;14.384;2024-02-26T13:33:38;14.20;82.70
18779;DHT22;9518;51.720;14.384;2024-02-26T13:36:05;14.40;82.30
18779;DHT22;9518;51.720;14.384;2024-02-26T13:38:33;14.50;82.60
18779;DHT22;9518;51.720;14.384;2024-02-26T13:41:00;14.40;83.40
18779;DHT22;9518;51.720;14.384;2024-02-26T13:43:30;14.20;83.40
18779;DHT22;9518;51.720;14.384;2024-02-26T13:45:59;13.80;83.40
18779;DHT22;9518;51.720;14.384;2024-02-26T13:48:26;13.50;83.80
18779;DHT22;9518;51.720;14.384;2024-02-26T13:50:54;13.40;84.50
18779;DHT22;9518;51.720;14.384;2024-02-26T13:53:21;13.40;86.10
18779;DHT22;9518;51.720;14.384;2024-02-26T13:55:49;13.20;86.40
18779;DHT22;9518;51.720;14.384;2024-02-26T13:58:16;13.20;85.70
18779;DHT22;9518;51.720;14.384;2024-02-26T14:00:48;13.30;86.40
18779;DHT22;9518;51.720;14.384;2024-02-26T14:03:16;13.40;86.80
18779;DHT22;9518;51.720;14.384;2024-02-26T14:05:45;13.40;87.70
18779;DHT22;9518;51.720;14.384;2024-02-26T14:08:14;13.30;87.60
18779;DHT22;9518;51.720;14.384;2024-02-26T14:10:42;13.10;85.00
18779;DHT22;9518;51.720;14.384;2024-02-26T14:13:09;12.90;84.70
18779;DHT22;9518;51.720;14.384;2024-02-26T14:15:36;12.60;85.40
18779;DHT22;9518;51.720;14.384;2024-02-26T14:18:05;12.40;85.60
18779;DHT22;9518;51.720;14.384;2024-02-26T14:20:36;12.30;85.70
18779;DHT22;9518;51.720;14.384;2024-02-26T14:23:04;12.20;86.80
18779;DHT22;9518;51.720;14.384;2024-02-26T14:25:31;12.20;86.30
18779;DHT22;9518;51.720;14.384;2024-02-26T14:27:58;12.20;86.50
18779;DHT22;9518;51.720;14.384;2024-02-26T14:30:25;12.10;87.20
18779;DHT22;9518;51.720;14.384;2024-02-26T14:32:53;12.10;88.00
18779;DHT22;9518;51.720;14.384;2024-02-26T14:35:20;12.00;87.00
18779;DHT22;9518;51.720;14.384;2024-02-26T14:37:48;12.00;86.70
18779;DHT22;9518;51.720;14.384;2024-02-26T14:40:16;11.90;87.90
18779;DHT22;9518;51.720;14.384;2024-02-26T14:42:44;12.00;88.80
18779;DHT22;9518;51.720;14.384;2024-02-26T14:45:11;12.00;89.30
18779;DHT22;9518;51.720;14.384;2024-02-26T14:47:38;11.90;89.20
18779;DHT22;9518;51.720;14.384;2024-02-26T14:50:06;11.80;89.20
18779;DHT22;9518;51.720;14.384;2024-02-26T14:52:35;11.80;90.00
18779;DHT22;9518;51.720;14.384;2024-02-26T14:55:04;11.60;90.20
18779;DHT22;9518;51.720;14.384;2024-02-26T14:57:32;11.50;90.30
18779;DHT22;9518;51.720;14.384;2024-02-26T14:59:59;11.40;91.00
18779;DHT22;9518;51.720;14.384;2024-02-26T15:02:26;11.40;91.60
18779;DHT22;9518;51.720;14.384;2024-02-26T15:04:54;11.30;91.90
18779;DHT22;9518;51.720;14.384;2024-02-26T15:07:21;11.30;92.10
18779;DHT22;9518;51.720;14.384;2024-02-26T15:09:48;11.20;92.50
18779;DHT22;9518;51.720;14.384;2024-02-26T15:12:16;11.10;92.60
18779;DHT22;9518;51.720;14.384;2024-02-26T15:14:46;11.00;93.10
18779;DHT22;9518;51.720;14.384;2024-02-26T15:17:13;11.00;93.30
18779;DHT22;9518;51.720;14.384;2024-02-26T15:19:40;10.90;93.50
18779;DHT22;9518;51.720;14.384;2024-02-26T15:22:07;10.90;94.10
18779;DHT22;9518;51.720;14.384;2024-02-26T15:24:34;10.90;94.20
18779;DHT22;9518;51.720;14.384;2024-02-26T15:27:01;10.90;94.40
18779;DHT22;9518;51.720;14.384;2024-02-26T15:29:30;10.90;94.80
18779;DHT22;9518;51.720;14.384;2024-02-26T15:31:57;10.80;95.20
18779;DHT22;9518;51.720;14.384;2024-02-26T15:34:24;10.80;95.70
18779;DHT22;9518;51.720;14.384;2024-02-26T15:36:51;10.70;95.70
18779;DHT22;9518;51.720;14.384;2024-02-26T15:39:18;10.70;95.60